sensor_id;sensor_type;location;lat;lon;timestamp;P1;durP1;ratioP1;P2;durP2;ratioP2
65835;SDS011;52595;51.608;7.216;2022-11-12T00:01:07;9.65;;;5.30;;
65835;SDS011;52595;51.608;7.216;2022-11-12T00:03:33;10.00;;;5.28;;
65835;SDS011;52595;51.608;7.216;2022-11-12T00:05:58;9.20;;;5.35;;
65835;SDS011;52595;51.608;7.216;2022-11-12T00:08:23;8.65;;;5.10;;
65835;SDS011;52595;51.608;7.216;2022-11-12T00:10:49;9.50;;;4.90;;
65835;SDS011;52595;51.608;7.216;2022-11-12T00:13:14;6.97;;;4.35;;
65835;SDS011;52595;51.608;7.216;2022-11-12T00:15:40;12.05;;;5.90;;
65835;SDS011;52595;51.608;7.216;2022-11-12T00:18:05;8.40;;;5.20;;
65835;SDS011;52595;51.608;7.216;2022-11-12T00:20:31;9.02;;;4.78;;
65835;SDS011;52595;51.608;7.216;2022-11-12T00:22:57;9.35;;;5.00;;
65835;SDS011;52595;51.608;7.216;2022-11-12T00:25:22;8.50;;;4.88;;
65835;SDS011;52595;51.608;7.216;2022-11-12T00:27:48;7.72;;;4.60;;
65835;SDS011;52595;51.608;7.216;2022-11-12T00:30:13;8.93;;;4.75;;
65835;SDS011;52595;51.608;7.216;2022-11-12T00:32:38;8.95;;;4.72;;
65835;SDS011;52595;51.608;7.216;2022-11-12T00:35:04;7.75;;;4.55;;
65835;SDS011;52595;51.608;7.216;2022-11-12T00:37:30;10.43;;;4.32;;
65835;SDS011;52595;51.608;7.216;2022-11-12T00:39:56;8.60;;;5.07;;
65835;SDS011;52595;51.608;7.216;2022-11-12T00:42:22;9.00;;;4.68;;
65835;SDS011;52595;51.608;7.216;2022-11-12T00:44:47;6.13;;;4.35;;
65835;SDS011;52595;51.608;7.216;2022-11-12T00:47:14;10.45;;;4.25;;
65835;SDS011;52595;51.608;7.216;2022-11-12T00:49:40;8.63;;;4.80;;
65835;SDS011;52595;51.608;7.216;2022-11-12T00:52:05;9.27;;;4.85;;
65835;SDS011;52595;51.608;7.216;2022-11-12T00:54:30;8.20;;;4.50;;
65835;SDS011;52595;51.608;7.216;2022-11-12T00:56:56;8.00;;;4.63;;
65835;SDS011;52595;51.608;7.216;2022-11-12T00:59:21;9.20;;;4.85;;
65835;SDS011;52595;51.608;7.216;2022-11-12T01:01:46;8.65;;;4.55;;
65835;SDS011;52595;51.608;7.216;2022-11-12T01:04:12;7.57;;;4.63;;
65835;SDS011;52595;51.608;7.216;2022-11-12T01:06:38;10.10;;;4.78;;
65835;SDS011;52595;51.608;7.216;2022-11-12T01:09:05;8.50;;;4.63;;
65835;SDS011;52595;51.608;7.216;2022-11-12T01:11:31;7.55;;;4.28;;
65835;SDS011;52595;51.608;7.216;2022-11-12T01:14:01;7.75;;;4.57;;
65835;SDS011;52595;51.608;7.216;2022-11-12T01:16:33;8.40;;;4.60;;
65835;SDS011;52595;51.608;7.216;2022-11-12T01:19:03;7.35;;;4.55;;
65835;SDS011;52595;51.608;7.216;2022-11-12T01:21:30;11.93;;;4.80;;
65835;SDS011;52595;51.608;7.216;2022-11-12T01:23:57;8.25;;;4.75;;
65835;SDS011;52595;51.608;7.216;2022-11-12T01:26:24;11.35;;;5.57;;
65835;SDS011;52595;51.608;7.216;2022-11-12T01:28:52;8.43;;;5.13;;
65835;SDS011;52595;51.608;7.216;2022-11-12T01:31:29;10.18;;;5.35;;
65835;SDS011;52595;51.608;7.216;2022-11-12T01:34:00;9.45;;;5.78;;
65835;SDS011;52595;51.608;7.216;2022-11-12T01:36:30;11.27;;;5.65;;
65835;SDS011;52595;51.608;7.216;2022-11-12T01:39:03;11.02;;;5.63;;
65835;SDS011;52595;51.608;7.216;2022-11-12T01:41:31;11.75;;;5.93;;
65835;SDS011;52595;51.608;7.216;2022-11-12T01:44:11;9.48;;;5.65;;
65835;SDS011;52595;51.608;7.216;2022-11-12T01:49:30;10.80;;;5.60;;
65835;SDS011;52595;51.608;7.216;2022-11-12T01:52:06;8.60;;;5.45;;
65835;SDS011;52595;51.608;7.216;2022-11-12T01:54:43;9.90;;;4.93;;
65835;SDS011;52595;51.608;7.216;2022-11-12T01:57:13;8.68;;;4.95;;
65835;SDS011;52595;51.608;7.216;2022-11-12T01:59:43;8.85;;;5.13;;
65835;SDS011;52595;51.608;7.216;2022-11-12T02:02:11;8.95;;;4.82;;
65835;SDS011;52595;51.608;7.216;2022-11-12T02:04:37;8.50;;;5.00;;
65835;SDS011;52595;51.608;7.216;2022-11-12T02:07:04;7.75;;;4.50;;
65835;SDS011;52595;51.608;7.216;2022-11-12T02:09:31;8.60;;;4.40;;
65835;SDS011;52595;51.608;7.216;2022-11-12T02:11:57;7.32;;;4.57;;
65835;SDS011;52595;51.608;7.216;2022-11-12T02:14:24;7.75;;;4.53;;
65835;SDS011;52595;51.608;7.216;2022-11-12T02:16:49;8.77;;;4.90;;
65835;SDS011;52595;51.608;7.216;2022-11-12T02:19:15;7.05;;;4.30;;
65835;SDS011;52595;51.608;7.216;2022-11-12T02:21:42;7.40;;;4.43;;
65835;SDS011;52595;51.608;7.216;2022-11-12T02:26:36;7.70;;;4.47;;
65835;SDS011;52595;51.608;7.216;2022-11-12T02:29:05;8.85;;;4.88;;
65835;SDS011;52595;51.608;7.216;2022-11-12T02:31:30;8.35;;;4.53;;
65835;SDS011;52595;51.608;7.216;2022-11-12T02:33:56;9.90;;;4.70;;
65835;SDS011;52595;51.608;7.216;2022-11-12T02:36:21;7.47;;;4.72;;
65835;SDS011;52595;51.608;7.216;2022-11-12T02:38:47;8.10;;;4.43;;
65835;SDS011;52595;51.608;7.216;2022-11-12T02:41:12;9.93;;;4.82;;
65835;SDS011;52595;51.608;7.216;2022-11-12T02:43:38;8.00;;;4.60;;
65835;SDS011;52595;51.608;7.216;2022-11-12T02:46:04;12.18;;;4.63;;
65835;SDS011;52595;51.608;7.216;2022-11-12T02:48:30;8.50;;;4.75;;
65835;SDS011;52595;51.608;7.216;2022-11-12T02:50:56;8.20;;;4.75;;
65835;SDS011;52595;51.608;7.216;2022-11-12T02:53:21;7.85;;;5.00;;
65835;SDS011;52595;51.608;7.216;2022-11-12T02:55:46;9.32;;;5.07;;
65835;SDS011;52595;51.608;7.216;2022-11-12T02:58:12;9.00;;;4.95;;
65835;SDS011;52595;51.608;7.216;2022-11-12T03:00:37;9.57;;;5.75;;
65835;SDS011;52595;51.608;7.216;2022-11-12T03:03:02;8.63;;;5.05;;
65835;SDS011;52595;51.608;7.216;2022-11-12T03:05:29;9.55;;;5.05;;
65835;SDS011;52595;51.608;7.216;2022-11-12T03:07:56;11.10;;;5.68;;
65835;SDS011;52595;51.608;7.216;2022-11-12T03:10:23;9.57;;;5.47;;
65835;SDS011;52595;51.608;7.216;2022-11-12T03:12:49;8.55;;;5.07;;
65835;SDS011;52595;51.608;7.216;2022-11-12T03:15:15;10.13;;;4.72;;
65835;SDS011;52595;51.608;7.216;2022-11-12T03:17:41;8.20;;;5.28;;
65835;SDS011;52595;51.608;7.216;2022-11-12T03:20:07;8.88;;;5.38;;
65835;SDS011;52595;51.608;7.216;2022-11-12T03:22:34;10.90;;;5.72;;
65835;SDS011;52595;51.608;7.216;2022-11-12T03:24:59;9.38;;;5.63;;
65835;SDS011;52595;51.608;7.216;2022-11-12T03:27:24;9.82;;;5.10;;
65835;SDS011;52595;51.608;7.216;2022-11-12T03:29:50;8.70;;;5.15;;
65835;SDS011;52595;51.608;7.216;2022-11-12T03:32:15;9.85;;;5.35;;
65835;SDS011;52595;51.608;7.216;2022-11-12T03:34:40;11.07;;;5.30;;
65835;SDS011;52595;51.608;7.216;2022-11-12T03:37:06;9.23;;;5.28;;
65835;SDS011;52595;51.608;7.216;2022-11-12T03:39:33;10.57;;;6.07;;
65835;SDS011;52595;51.608;7.216;2022-11-12T03:41:59;9.80;;;5.93;;
65835;SDS011;52595;51.608;7.216;2022-11-12T03:44:24;12.05;;;5.97;;
65835;SDS011;52595;51.608;7.216;2022-11-12T03:46:50;14.27;;;6.10;;
65835;SDS011;52595;51.608;7.216;2022-11-12T03:49:15;12.30;;;6.65;;
65835;SDS011;52595;51.608;7.216;2022-11-12T03:51:40;10.10;;;6.53;;
65835;SDS011;52595;51.608;7.216;2022-11-12T03:54:06;14.32;;;6.53;;
65835;SDS011;52595;51.608;7.216;2022-11-12T03:56:31;10.65;;;6.30;;
65835;SDS011;52595;51.608;7.216;2022-11-12T03:58:56;13.20;;;7.00;;
65835;SDS011;52595;51.608;7.216;2022-11-12T04:01:22;11.52;;;6.68;;
65835;SDS011;52595;51.608;7.216;2022-11-12T04:03:47;12.30;;;6.75;;
65835;SDS011;52595;51.608;7.216;2022-11-12T04:06:12;10.10;;;6.13;;
65835;SDS011;52595;51.608;7.216;2022-11-12T04:08:56;10.65;;;6.18;;
65835;SDS011;52595;51.608;7.216;2022-11-12T04:11:22;11.30;;;6.45;;
65835;SDS011;52595;51.608;7.216;2022-11-12T04:13:47;13.82;;;6.88;;
65835;SDS011;52595;51.608;7.216;2022-11-12T04:16:17;10.70;;;6.40;;
65835;SDS011;52595;51.608;7.216;2022-11-12T04:19:03;13.13;;;6.40;;
65835;SDS011;52595;51.608;7.216;2022-11-12T04:22:09;11.07;;;6.22;;
65835;SDS011;52595;51.608;7.216;2022-11-12T04:24:35;9.10;;;5.82;;
65835;SDS011;52595;51.608;7.216;2022-11-12T04:27:25;9.98;;;6.07;;
65835;SDS011;52595;51.608;7.216;2022-11-12T04:29:56;11.38;;;6.20;;
65835;SDS011;52595;51.608;7.216;2022-11-12T04:33:01;9.65;;;5.88;;
65835;SDS011;52595;51.608;7.216;2022-11-12T04:35:25;11.45;;;5.93;;
65835;SDS011;52595;51.608;7.216;2022-11-12T04:37:51;7.45;;;5.15;;
65835;SDS011;52595;51.608;7.216;2022-11-12T04:40:24;9.73;;;5.78;;
65835;SDS011;52595;51.608;7.216;2022-11-12T04:43:14;10.07;;;5.13;;
65835;SDS011;52595;51.608;7.216;2022-11-12T04:45:59;9.80;;;5.10;;
65835;SDS011;52595;51.608;7.216;2022-11-12T04:48:26;9.35;;;5.35;;
65835;SDS011;52595;51.608;7.216;2022-11-12T04:50:53;8.18;;;5.07;;
65835;SDS011;52595;51.608;7.216;2022-11-12T04:53:20;7.78;;;4.90;;
65835;SDS011;52595;51.608;7.216;2022-11-12T04:55:50;8.88;;;5.18;;
65835;SDS011;52595;51.608;7.216;2022-11-12T04:58:16;10.50;;;6.07;;
65835;SDS011;52595;51.608;7.216;2022-11-12T05:00:41;8.55;;;5.15;;
65835;SDS011;52595;51.608;7.216;2022-11-12T05:03:07;8.98;;;5.43;;
65835;SDS011;52595;51.608;7.216;2022-11-12T05:05:32;9.88;;;5.38;;
65835;SDS011;52595;51.608;7.216;2022-11-12T05:07:58;8.95;;;4.85;;
65835;SDS011;52595;51.608;7.216;2022-11-12T05:10:24;8.40;;;4.70;;
65835;SDS011;52595;51.608;7.216;2022-11-12T05:12:50;8.68;;;4.70;;
65835;SDS011;52595;51.608;7.216;2022-11-12T05:15:15;7.75;;;4.55;;
65835;SDS011;52595;51.608;7.216;2022-11-12T05:17:42;8.73;;;5.30;;
65835;SDS011;52595;51.608;7.216;2022-11-12T05:20:09;11.48;;;5.88;;
65835;SDS011;52595;51.608;7.216;2022-11-12T05:22:35;10.65;;;5.22;;
65835;SDS011;52595;51.608;7.216;2022-11-12T05:25:01;8.85;;;5.07;;
65835;SDS011;52595;51.608;7.216;2022-11-12T05:27:27;8.63;;;5.25;;
65835;SDS011;52595;51.608;7.216;2022-11-12T05:29:52;11.65;;;5.25;;
65835;SDS011;52595;51.608;7.216;2022-11-12T05:32:18;7.95;;;4.95;;
65835;SDS011;52595;51.608;7.216;2022-11-12T05:34:43;9.90;;;4.80;;
65835;SDS011;52595;51.608;7.216;2022-11-12T05:37:09;8.02;;;4.90;;
65835;SDS011;52595;51.608;7.216;2022-11-12T05:39:36;10.90;;;5.25;;
65835;SDS011;52595;51.608;7.216;2022-11-12T05:42:02;12.73;;;6.18;;
65835;SDS011;52595;51.608;7.216;2022-11-12T05:44:27;8.07;;;5.22;;
65835;SDS011;52595;51.608;7.216;2022-11-12T05:46:53;10.13;;;5.05;;
65835;SDS011;52595;51.608;7.216;2022-11-12T05:49:19;10.45;;;5.25;;
65835;SDS011;52595;51.608;7.216;2022-11-12T05:51:44;9.35;;;5.32;;
65835;SDS011;52595;51.608;7.216;2022-11-12T05:54:10;7.82;;;4.78;;
65835;SDS011;52595;51.608;7.216;2022-11-12T05:56:35;7.75;;;4.30;;
65835;SDS011;52595;51.608;7.216;2022-11-12T05:59:02;6.38;;;4.40;;
65835;SDS011;52595;51.608;7.216;2022-11-12T06:01:29;7.50;;;4.40;;
65835;SDS011;52595;51.608;7.216;2022-11-12T06:03:55;9.57;;;4.97;;
65835;SDS011;52595;51.608;7.216;2022-11-12T06:06:20;8.90;;;5.13;;
65835;SDS011;52595;51.608;7.216;2022-11-12T06:08:45;8.38;;;5.07;;
65835;SDS011;52595;51.608;7.216;2022-11-12T06:11:11;7.45;;;4.80;;
65835;SDS011;52595;51.608;7.216;2022-11-12T06:13:36;9.50;;;4.90;;
65835;SDS011;52595;51.608;7.216;2022-11-12T06:16:01;7.18;;;4.80;;
65835;SDS011;52595;51.608;7.216;2022-11-12T06:18:27;9.32;;;4.75;;
65835;SDS011;52595;51.608;7.216;2022-11-12T06:20:52;7.43;;;4.47;;
65835;SDS011;52595;51.608;7.216;2022-11-12T06:23:36;10.18;;;4.55;;
65835;SDS011;52595;51.608;7.216;2022-11-12T06:26:02;9.23;;;4.78;;
65835;SDS011;52595;51.608;7.216;2022-11-12T06:28:28;7.85;;;4.60;;
65835;SDS011;52595;51.608;7.216;2022-11-12T06:30:54;11.73;;;5.20;;
65835;SDS011;52595;51.608;7.216;2022-11-12T06:33:19;10.68;;;4.95;;
65835;SDS011;52595;51.608;7.216;2022-11-12T06:35:45;8.20;;;4.88;;
65835;SDS011;52595;51.608;7.216;2022-11-12T06:38:10;8.70;;;5.32;;
65835;SDS011;52595;51.608;7.216;2022-11-12T06:40:35;9.07;;;5.05;;
65835;SDS011;52595;51.608;7.216;2022-11-12T06:43:01;7.93;;;4.45;;
65835;SDS011;52595;51.608;7.216;2022-11-12T06:45:26;7.47;;;4.80;;
65835;SDS011;52595;51.608;7.216;2022-11-12T06:47:53;8.98;;;4.85;;
65835;SDS011;52595;51.608;7.216;2022-11-12T06:50:22;10.10;;;5.07;;
65835;SDS011;52595;51.608;7.216;2022-11-12T06:52:47;12.88;;;5.63;;
65835;SDS011;52595;51.608;7.216;2022-11-12T06:55:12;9.38;;;5.43;;
65835;SDS011;52595;51.608;7.216;2022-11-12T06:57:38;12.65;;;5.82;;
65835;SDS011;52595;51.608;7.216;2022-11-12T07:00:03;11.73;;;5.47;;
65835;SDS011;52595;51.608;7.216;2022-11-12T07:02:29;9.95;;;5.60;;
65835;SDS011;52595;51.608;7.216;2022-11-12T07:04:54;10.00;;;5.63;;
65835;SDS011;52595;51.608;7.216;2022-11-12T07:07:20;12.30;;;6.15;;
65835;SDS011;52595;51.608;7.216;2022-11-12T07:09:45;11.82;;;5.47;;
65835;SDS011;52595;51.608;7.216;2022-11-12T07:12:10;10.38;;;5.40;;
65835;SDS011;52595;51.608;7.216;2022-11-12T07:14:36;9.50;;;5.13;;
65835;SDS011;52595;51.608;7.216;2022-11-12T07:17:01;9.20;;;5.53;;
65835;SDS011;52595;51.608;7.216;2022-11-12T07:19:27;8.20;;;5.38;;
65835;SDS011;52595;51.608;7.216;2022-11-12T07:21:52;11.30;;;5.80;;
65835;SDS011;52595;51.608;7.216;2022-11-12T07:24:17;11.00;;;6.15;;
65835;SDS011;52595;51.608;7.216;2022-11-12T07:26:43;10.15;;;6.07;;
65835;SDS011;52595;51.608;7.216;2022-11-12T07:29:08;9.88;;;5.75;;
65835;SDS011;52595;51.608;7.216;2022-11-12T07:31:34;12.80;;;6.30;;
65835;SDS011;52595;51.608;7.216;2022-11-12T07:33:59;11.10;;;6.55;;
65835;SDS011;52595;51.608;7.216;2022-11-12T07:36:25;10.93;;;6.00;;
65835;SDS011;52595;51.608;7.216;2022-11-12T07:38:51;13.07;;;5.63;;
65835;SDS011;52595;51.608;7.216;2022-11-12T07:41:21;11.57;;;6.53;;
65835;SDS011;52595;51.608;7.216;2022-11-12T07:43:48;11.75;;;6.07;;
65835;SDS011;52595;51.608;7.216;2022-11-12T07:46:19;9.95;;;6.20;;
65835;SDS011;52595;51.608;7.216;2022-11-12T07:48:46;11.25;;;6.28;;
65835;SDS011;52595;51.608;7.216;2022-11-12T07:51:13;11.73;;;6.50;;
65835;SDS011;52595;51.608;7.216;2022-11-12T07:53:42;12.45;;;6.30;;
65835;SDS011;52595;51.608;7.216;2022-11-12T07:56:12;12.98;;;6.75;;
65835;SDS011;52595;51.608;7.216;2022-11-12T07:58:42;12.38;;;6.68;;
65835;SDS011;52595;51.608;7.216;2022-11-12T08:01:09;12.30;;;7.22;;
65835;SDS011;52595;51.608;7.216;2022-11-12T08:03:40;12.18;;;7.50;;
65835;SDS011;52595;51.608;7.216;2022-11-12T08:06:05;13.45;;;8.07;;
65835;SDS011;52595;51.608;7.216;2022-11-12T08:08:31;10.82;;;7.43;;
65835;SDS011;52595;51.608;7.216;2022-11-12T08:10:56;12.02;;;7.47;;
65835;SDS011;52595;51.608;7.216;2022-11-12T08:13:23;13.02;;;7.78;;
65835;SDS011;52595;51.608;7.216;2022-11-12T08:15:49;13.13;;;7.47;;
65835;SDS011;52595;51.608;7.216;2022-11-12T08:18:15;12.13;;;7.38;;
65835;SDS011;52595;51.608;7.216;2022-11-12T08:20:40;13.23;;;8.27;;
65835;SDS011;52595;51.608;7.216;2022-11-12T08:23:06;12.45;;;7.43;;
65835;SDS011;52595;51.608;7.216;2022-11-12T08:25:32;12.43;;;7.18;;
65835;SDS011;52595;51.608;7.216;2022-11-12T08:27:58;12.70;;;7.22;;
65835;SDS011;52595;51.608;7.216;2022-11-12T08:30:27;14.68;;;7.20;;
65835;SDS011;52595;51.608;7.216;2022-11-12T08:33:00;11.32;;;6.53;;
65835;SDS011;52595;51.608;7.216;2022-11-12T08:35:28;10.93;;;5.90;;
65835;SDS011;52595;51.608;7.216;2022-11-12T08:37:57;8.98;;;5.95;;
65835;SDS011;52595;51.608;7.216;2022-11-12T08:40:24;12.35;;;6.50;;
65835;SDS011;52595;51.608;7.216;2022-11-12T08:42:55;10.48;;;6.47;;
65835;SDS011;52595;51.608;7.216;2022-11-12T08:45:22;12.15;;;5.93;;
65835;SDS011;52595;51.608;7.216;2022-11-12T08:47:47;10.98;;;5.93;;
65835;SDS011;52595;51.608;7.216;2022-11-12T08:50:12;8.93;;;5.63;;
65835;SDS011;52595;51.608;7.216;2022-11-12T08:52:38;11.27;;;6.38;;
65835;SDS011;52595;51.608;7.216;2022-11-12T08:55:03;10.57;;;6.22;;
65835;SDS011;52595;51.608;7.216;2022-11-12T08:57:29;10.02;;;6.45;;
65835;SDS011;52595;51.608;7.216;2022-11-12T08:59:55;11.98;;;6.65;;
65835;SDS011;52595;51.608;7.216;2022-11-12T09:02:20;11.07;;;7.00;;
65835;SDS011;52595;51.608;7.216;2022-11-12T09:04:46;10.20;;;6.75;;
65835;SDS011;52595;51.608;7.216;2022-11-12T09:07:11;9.95;;;6.88;;
65835;SDS011;52595;51.608;7.216;2022-11-12T09:09:36;11.07;;;7.03;;
65835;SDS011;52595;51.608;7.216;2022-11-12T09:12:02;12.43;;;6.32;;
65835;SDS011;52595;51.608;7.216;2022-11-12T09:14:27;12.10;;;6.65;;
65835;SDS011;52595;51.608;7.216;2022-11-12T09:16:53;9.23;;;6.30;;
65835;SDS011;52595;51.608;7.216;2022-11-12T09:19:18;9.05;;;6.15;;
65835;SDS011;52595;51.608;7.216;2022-11-12T09:21:44;8.70;;;6.10;;
65835;SDS011;52595;51.608;7.216;2022-11-12T09:24:09;9.75;;;6.10;;
65835;SDS011;52595;51.608;7.216;2022-11-12T09:26:34;7.55;;;5.72;;
65835;SDS011;52595;51.608;7.216;2022-11-12T09:29:00;10.30;;;5.95;;
65835;SDS011;52595;51.608;7.216;2022-11-12T09:31:25;7.80;;;5.57;;
65835;SDS011;52595;51.608;7.216;2022-11-12T09:33:51;11.00;;;6.00;;
65835;SDS011;52595;51.608;7.216;2022-11-12T09:36:16;8.38;;;5.18;;
65835;SDS011;52595;51.608;7.216;2022-11-12T09:38:41;9.75;;;6.05;;
65835;SDS011;52595;51.608;7.216;2022-11-12T09:41:13;12.35;;;8.00;;
65835;SDS011;52595;51.608;7.216;2022-11-12T09:49:05;12.00;;;8.43;;
65835;SDS011;52595;51.608;7.216;2022-11-12T09:51:45;13.38;;;6.85;;
65835;SDS011;52595;51.608;7.216;2022-11-12T09:54:18;8.95;;;5.85;;
65835;SDS011;52595;51.608;7.216;2022-11-12T09:56:47;9.57;;;5.25;;
65835;SDS011;52595;51.608;7.216;2022-11-12T09:59:13;6.75;;;4.32;;
65835;SDS011;52595;51.608;7.216;2022-11-12T10:01:42;6.55;;;4.38;;
65835;SDS011;52595;51.608;7.216;2022-11-12T10:10:17;7.13;;;4.25;;
65835;SDS011;52595;51.608;7.216;2022-11-12T10:12:59;7.93;;;4.72;;
65835;SDS011;52595;51.608;7.216;2022-11-12T10:19:01;7.65;;;4.53;;
65835;SDS011;52595;51.608;7.216;2022-11-12T10:24:13;8.40;;;5.32;;
65835;SDS011;52595;51.608;7.216;2022-11-12T10:26:39;7.97;;;4.90;;
65835;SDS011;52595;51.608;7.216;2022-11-12T10:31:48;9.73;;;4.68;;
65835;SDS011;52595;51.608;7.216;2022-11-12T10:34:17;7.60;;;4.25;;
65835;SDS011;52595;51.608;7.216;2022-11-12T10:36:48;7.32;;;4.25;;
65835;SDS011;52595;51.608;7.216;2022-11-12T10:39:30;7.93;;;3.95;;
65835;SDS011;52595;51.608;7.216;2022-11-12T10:42:02;7.55;;;3.80;;
65835;SDS011;52595;51.608;7.216;2022-11-12T10:44:34;6.60;;;4.00;;
65835;SDS011;52595;51.608;7.216;2022-11-12T10:52:33;10.48;;;4.80;;
65835;SDS011;52595;51.608;7.216;2022-11-12T10:55:04;7.15;;;4.45;;
65835;SDS011;52595;51.608;7.216;2022-11-12T10:58:00;6.47;;;4.07;;
65835;SDS011;52595;51.608;7.216;2022-11-12T11:00:37;7.15;;;4.30;;
65835;SDS011;52595;51.608;7.216;2022-11-12T11:03:16;6.95;;;4.60;;
65835;SDS011;52595;51.608;7.216;2022-11-12T11:05:51;7.85;;;4.43;;
65835;SDS011;52595;51.608;7.216;2022-11-12T11:13:56;9.32;;;4.10;;
65835;SDS011;52595;51.608;7.216;2022-11-12T11:16:49;10.73;;;6.13;;
65835;SDS011;52595;51.608;7.216;2022-11-12T11:19:16;8.20;;;4.75;;
65835;SDS011;52595;51.608;7.216;2022-11-12T11:27:04;6.13;;;3.85;;
65835;SDS011;52595;51.608;7.216;2022-11-12T11:38:20;6.22;;;4.25;;
65835;SDS011;52595;51.608;7.216;2022-11-12T11:49:46;6.30;;;4.15;;
65835;SDS011;52595;51.608;7.216;2022-11-12T11:55:15;7.18;;;5.13;;
65835;SDS011;52595;51.608;7.216;2022-11-12T11:58:13;10.32;;;6.07;;
65835;SDS011;52595;51.608;7.216;2022-11-12T12:06:56;9.60;;;6.80;;
65835;SDS011;52595;51.608;7.216;2022-11-12T12:12:03;10.43;;;6.30;;
65835;SDS011;52595;51.608;7.216;2022-11-12T12:14:45;9.13;;;6.63;;
65835;SDS011;52595;51.608;7.216;2022-11-12T12:17:31;8.82;;;6.22;;
65835;SDS011;52595;51.608;7.216;2022-11-12T12:23:01;10.80;;;6.80;;
65835;SDS011;52595;51.608;7.216;2022-11-12T12:25:36;9.82;;;6.65;;
65835;SDS011;52595;51.608;7.216;2022-11-12T12:30:39;8.10;;;5.85;;
65835;SDS011;52595;51.608;7.216;2022-11-12T12:33:14;8.18;;;5.88;;
65835;SDS011;52595;51.608;7.216;2022-11-12T12:35:52;8.00;;;5.55;;
65835;SDS011;52595;51.608;7.216;2022-11-12T12:38:34;7.68;;;5.55;;
65835;SDS011;52595;51.608;7.216;2022-11-12T12:41:13;9.00;;;5.45;;
65835;SDS011;52595;51.608;7.216;2022-11-12T12:43:53;7.53;;;5.47;;
65835;SDS011;52595;51.608;7.216;2022-11-12T12:46:23;6.90;;;5.38;;
65835;SDS011;52595;51.608;7.216;2022-11-12T12:48:52;8.20;;;5.63;;
65835;SDS011;52595;51.608;7.216;2022-11-12T12:51:19;9.25;;;5.97;;
65835;SDS011;52595;51.608;7.216;2022-11-12T12:53:46;9.50;;;5.93;;
65835;SDS011;52595;51.608;7.216;2022-11-12T12:58:46;9.93;;;5.68;;
65835;SDS011;52595;51.608;7.216;2022-11-12T13:09:04;8.00;;;5.05;;
65835;SDS011;52595;51.608;7.216;2022-11-12T13:19:35;11.65;;;6.07;;
65835;SDS011;52595;51.608;7.216;2022-11-12T13:30:08;11.73;;;7.15;;
65835;SDS011;52595;51.608;7.216;2022-11-12T13:40:14;11.35;;;6.22;;
65835;SDS011;52595;51.608;7.216;2022-11-12T13:42:43;10.95;;;7.68;;
65835;SDS011;52595;51.608;7.216;2022-11-12T13:45:18;13.85;;;9.15;;
65835;SDS011;52595;51.608;7.216;2022-11-12T13:47:47;12.52;;;7.47;;
65835;SDS011;52595;51.608;7.216;2022-11-12T13:50:15;11.07;;;7.10;;
65835;SDS011;52595;51.608;7.216;2022-11-12T13:52:43;9.18;;;7.55;;
65835;SDS011;52595;51.608;7.216;2022-11-12T13:55:13;10.43;;;7.30;;
65835;SDS011;52595;51.608;7.216;2022-11-12T13:57:49;10.52;;;7.13;;
65835;SDS011;52595;51.608;7.216;2022-11-12T14:02:41;11.45;;;6.88;;
65835;SDS011;52595;51.608;7.216;2022-11-12T14:05:13;9.52;;;6.30;;
65835;SDS011;52595;51.608;7.216;2022-11-12T14:19:05;9.15;;;5.70;;
65835;SDS011;52595;51.608;7.216;2022-11-12T14:21:57;12.98;;;5.80;;
65835;SDS011;52595;51.608;7.216;2022-11-12T14:24:34;9.70;;;5.47;;
65835;SDS011;52595;51.608;7.216;2022-11-12T14:27:00;18.25;;;6.00;;
65835;SDS011;52595;51.608;7.216;2022-11-12T14:29:25;10.32;;;5.72;;
65835;SDS011;52595;51.608;7.216;2022-11-12T14:32:00;9.40;;;5.35;;
65835;SDS011;52595;51.608;7.216;2022-11-12T14:34:30;7.88;;;5.82;;
65835;SDS011;52595;51.608;7.216;2022-11-12T14:36:57;13.20;;;6.00;;
65835;SDS011;52595;51.608;7.216;2022-11-12T14:39:23;8.27;;;5.50;;
65835;SDS011;52595;51.608;7.216;2022-11-12T14:41:50;9.68;;;5.85;;
65835;SDS011;52595;51.608;7.216;2022-11-12T14:44:18;9.15;;;5.70;;
65835;SDS011;52595;51.608;7.216;2022-11-12T14:46:52;8.73;;;5.32;;
65835;SDS011;52595;51.608;7.216;2022-11-12T14:54:35;7.38;;;4.30;;
65835;SDS011;52595;51.608;7.216;2022-11-12T14:57:45;7.13;;;4.90;;
65835;SDS011;52595;51.608;7.216;2022-11-12T15:00:24;7.60;;;5.20;;
65835;SDS011;52595;51.608;7.216;2022-11-12T15:03:01;9.52;;;5.32;;
65835;SDS011;52595;51.608;7.216;2022-11-12T15:05:28;9.20;;;5.25;;
65835;SDS011;52595;51.608;7.216;2022-11-12T15:07:55;8.23;;;5.07;;
65835;SDS011;52595;51.608;7.216;2022-11-12T15:15:34;8.02;;;5.45;;
65835;SDS011;52595;51.608;7.216;2022-11-12T15:18:04;8.38;;;5.50;;
65835;SDS011;52595;51.608;7.216;2022-11-12T15:20:31;7.97;;;5.35;;
65835;SDS011;52595;51.608;7.216;2022-11-12T15:22:56;9.00;;;5.57;;
65835;SDS011;52595;51.608;7.216;2022-11-12T15:25:26;7.45;;;5.22;;
65835;SDS011;52595;51.608;7.216;2022-11-12T15:27:54;8.07;;;4.82;;
65835;SDS011;52595;51.608;7.216;2022-11-12T15:30:26;7.43;;;5.20;;
65835;SDS011;52595;51.608;7.216;2022-11-12T15:33:16;9.05;;;5.20;;
65835;SDS011;52595;51.608;7.216;2022-11-12T15:35:45;7.95;;;5.22;;
65835;SDS011;52595;51.608;7.216;2022-11-12T15:38:38;9.60;;;5.70;;
65835;SDS011;52595;51.608;7.216;2022-11-12T15:41:03;9.10;;;5.32;;
65835;SDS011;52595;51.608;7.216;2022-11-12T15:43:39;9.15;;;5.93;;
65835;SDS011;52595;51.608;7.216;2022-11-12T15:46:10;8.80;;;5.70;;
65835;SDS011;52595;51.608;7.216;2022-11-12T15:48:38;8.85;;;5.40;;
65835;SDS011;52595;51.608;7.216;2022-11-12T15:51:03;12.13;;;5.97;;
65835;SDS011;52595;51.608;7.216;2022-11-12T15:53:28;11.85;;;6.78;;
65835;SDS011;52595;51.608;7.216;2022-11-12T15:55:54;18.88;;;9.63;;
65835;SDS011;52595;51.608;7.216;2022-11-12T15:58:24;17.13;;;9.23;;
65835;SDS011;52595;51.608;7.216;2022-11-12T16:00:56;10.45;;;6.47;;
65835;SDS011;52595;51.608;7.216;2022-11-12T16:03:22;9.88;;;6.13;;
65835;SDS011;52595;51.608;7.216;2022-11-12T16:05:48;11.43;;;6.35;;
65835;SDS011;52595;51.608;7.216;2022-11-12T16:08:13;12.23;;;8.60;;
65835;SDS011;52595;51.608;7.216;2022-11-12T16:10:39;12.35;;;7.97;;
65835;SDS011;52595;51.608;7.216;2022-11-12T16:13:09;17.88;;;9.98;;
65835;SDS011;52595;51.608;7.216;2022-11-12T16:15:39;14.77;;;8.02;;
65835;SDS011;52595;51.608;7.216;2022-11-12T16:18:04;12.25;;;7.25;;
65835;SDS011;52595;51.608;7.216;2022-11-12T16:20:31;10.27;;;6.82;;
65835;SDS011;52595;51.608;7.216;2022-11-12T16:22:58;11.80;;;7.50;;
65835;SDS011;52595;51.608;7.216;2022-11-12T16:25:24;12.80;;;8.38;;
65835;SDS011;52595;51.608;7.216;2022-11-12T16:27:54;12.52;;;7.85;;
65835;SDS011;52595;51.608;7.216;2022-11-12T16:30:21;10.43;;;7.22;;
65835;SDS011;52595;51.608;7.216;2022-11-12T16:32:51;10.73;;;7.45;;
65835;SDS011;52595;51.608;7.216;2022-11-12T16:35:16;13.20;;;8.38;;
65835;SDS011;52595;51.608;7.216;2022-11-12T16:37:42;11.93;;;7.85;;
65835;SDS011;52595;51.608;7.216;2022-11-12T16:40:13;13.98;;;8.32;;
65835;SDS011;52595;51.608;7.216;2022-11-12T16:42:42;12.25;;;7.80;;
65835;SDS011;52595;51.608;7.216;2022-11-12T16:45:13;12.10;;;7.65;;
65835;SDS011;52595;51.608;7.216;2022-11-12T16:47:43;13.77;;;8.03;;
65835;SDS011;52595;51.608;7.216;2022-11-12T16:50:15;14.25;;;8.63;;
65835;SDS011;52595;51.608;7.216;2022-11-12T16:52:42;15.77;;;10.25;;
65835;SDS011;52595;51.608;7.216;2022-11-12T16:55:08;18.13;;;10.30;;
65835;SDS011;52595;51.608;7.216;2022-11-12T16:57:34;26.20;;;14.07;;
65835;SDS011;52595;51.608;7.216;2022-11-12T16:59:59;17.63;;;10.50;;
65835;SDS011;52595;51.608;7.216;2022-11-12T17:02:25;25.05;;;12.57;;
65835;SDS011;52595;51.608;7.216;2022-11-12T17:04:50;19.38;;;11.52;;